Skip to main content.
Our real time weather data display below is updated continuously via our 24/7 live data feed.
 TIME   TEMPERATURE   WINDSPEED   DIRECTION   HUMIDITY   BAROMETER   RAINFALL 
6:05 22.9°C (73.2°F) 0.0 kmh (0.0 mph) SW 78% 1012.4hPa (29.90 inHg) 0.0mm (0.00 in.)
5:05 23.6°C (74.5 °F) 13.0 kmh (8.1 mph) WSW 75% 1012.6hPa (29.90 inHg) 0.0mm (0.00 in.)
4:05 23.7°C (74.7 °F) 7.4 kmh (4.6 mph) WSW 75% 1012.7hPa (29.91 inHg) 0.0mm (0.00 in.)
3:05 24.1°C (75.4 °F) 7.4 kmh (4.6 mph) WSW 75% 1012.9hPa (29.91 inHg) 0.0mm (0.00 in.)
2:05 23.9°C (75.0 °F) 13.0 kmh (8.1 mph) SW 76% 1013.2hPa (29.92 inHg) 0.0mm (0.00 in.)
1:05 23.7°C (74.7 °F) 9.3 kmh (5.8 mph) SW 75% 1013.4hPa (29.93 inHg) 0.0mm (0.00 in.)
12:05 23.7°C (74.7 °F) 3.7 kmh (2.3 mph) SSW 76% 1013.3hPa (29.92 inHg) 0.0mm (0.00 in.)
11:05 22.2°C (72.0 °F) 9.3 kmh (5.8 mph) S 80% 1013.5hPa (29.93 inHg) 0.0mm (0.00 in.)
10:05 22.0°C (71.6 °F) 7.4 kmh (4.6 mph) SSW 81% 1013.5hPa (29.93 inHg) 0.0mm (0.00 in.)
9:05 21.8°C (71.2 °F) 13.0 kmh (8.1 mph) SW 78% 1013.6hPa (29.93 inHg) 0.0mm (0.00 in.)
8:05 20.3°C (68.5 °F) 1.9 kmh (1.2 mph) W 92% 1013.6hPa (29.93 inHg) 0.0mm (0.00 in.)
7:05 19.3°C (66.7 °F) 0.0 kmh (0.0 mph) WNW 97% 1013.4hPa (29.93 inHg) 0.0mm (0.00 in.)
6:05 17.7°C (63.9 °F) 0.0 kmh (0.0 mph) WNW 97% 1013.2hPa (29.92 inHg) 0.0mm (0.00 in.)
5:05 18.4°C (65.1 °F) 0.0 kmh (0.0 mph) WNW 96% 1013.1hPa (29.92 inHg) 0.0mm (0.00 in.)
4:05 18.3°C (64.9 °F) 0.0 kmh (0.0 mph) WNW 95% 1013.0hPa (29.91 inHg) 0.0mm (0.00 in.)
3:05 18.5°C (65.3 °F) 0.0 kmh (0.0 mph) WNW 94% 1013.2hPa (29.92 inHg) 0.0mm (0.00 in.)
2:05 18.3°C (64.9 °F) 3.7 kmh (2.3 mph) NNW 88% 1013.6hPa (29.93 inHg) 0.0mm (0.00 in.)
1:05 18.5°C (65.3 °F) 0.0 kmh (0.0 mph) NNW 89% 1014.1hPa (29.95 inHg) 0.0mm (0.00 in.)
12:05 19.3°C (66.7 °F) 0.0 kmh (0.0 mph) NNW 86% 1014.5hPa (29.96 inHg) 0.0mm (0.00 in.)
11:05 19.7°C (67.5 °F) 1.9 kmh (1.2 mph) N 79% 1014.6hPa (29.96 inHg) 0.0mm (0.00 in.)
9:51 19.3°C (66.7 °F) 3.7 kmh (2.3 mph) N 80% 1014.3hPa (29.95 inHg) 0.0mm (0.00 in.)
8:51 19.4°C (66.9 °F) 5.6 kmh (3.5 mph) N 90% 1014.1hPa (29.95 inHg) 0.0mm (0.00 in.)
7:51 20.2°C (68.4 °F) 0.0 kmh (0.0 mph) N 79% 1014.0hPa (29.94 inHg) 0.0mm (0.00 in.)
6:51 21.0°C (69.8 °F) 9.3 kmh (5.8 mph) N 79% 1013.9hPa (29.94 inHg) 0.0mm (0.00 in.)